Time;durP1;ratioP1;P1;durP2;ratioP2;P2;SDS_P1;SDS_P2;PMS_P1;PMS_P2;Temp;Humidity;BMP_temperature;BMP_pressure;BME280_temperature;BME280_humidity;BME280_pressure;Samples;Min_cycle;Max_cycle;Signal;HPM_P1;HPM_P2
2024/04/12 00:01:20;;;;;;;1.45;1.35;;;;;;;;;;5662858;25;20275;-51
2024/04/12 00:03:52;;;;;;;1.73;1.63;;;;;;;;;;5679312;25;20228;-49
2024/04/12 00:06:25;;;;;;;2.67;2.08;;;;;;;;;;5663079;25;20940;-49
2024/04/12 00:08:54;;;;;;;1.60;1.50;;;;;;;;;;5640870;25;20636;-50
2024/04/12 00:11:21;;;;;;;2.53;2.05;;;;;;;;;;5640392;25;20260;-52
2024/04/12 00:13:52;;;;;;;1.92;1.60;;;;;;;;;;5676653;25;20289;-49
2024/04/12 00:16:23;;;;;;;1.40;1.30;;;;;;;;;;5663003;25;20220;-52
2024/04/12 00:19:06;;;;;;;1.75;1.50;;;;;;;;;;5662714;25;20272;-52
2024/04/12 00:21:37;;;;;;;1.33;1.17;;;;;;;;;;5645786;25;20749;-51
2024/04/12 00:24:10;;;;;;;1.92;1.40;;;;;;;;;;5648628;25;20224;-53
2024/04/12 00:26:37;;;;;;;1.50;1.40;;;;;;;;;;5679059;25;20216;-53
2024/04/12 00:29:08;;;;;;;1.30;1.20;;;;;;;;;;5653646;25;20260;-49
2024/04/12 00:31:42;;;;;;;2.13;1.50;;;;;;;;;;5656191;25;20274;-49
2024/04/12 00:34:14;;;;;;;1.60;1.08;;;;;;;;;;5649777;25;20220;-49
2024/04/12 00:36:44;;;;;;;1.55;0.90;;;;;;;;;;5646334;25;20319;-49
2024/04/12 00:39:35;;;;;;;0.90;0.90;;;;;;;;;;5662485;25;20216;-49
2024/04/12 00:42:00;;;;;;;1.25;1.00;;;;;;;;;;5663431;25;20216;-49
2024/04/12 00:44:29;;;;;;;0.70;0.70;;;;;;;;;;5678300;25;20257;-49
2024/04/12 00:46:59;;;;;;;0.88;0.80;;;;;;;;;;5661036;25;20216;-49
2024/04/12 00:49:30;;;;;;;1.23;1.13;;;;;;;;;;5662235;25;20223;-48
2024/04/12 00:52:02;;;;;;;1.20;1.10;;;;;;;;;;5646363;25;20736;-49
2024/04/12 00:54:32;;;;;;;0.70;0.70;;;;;;;;;;5646187;25;20236;-49
2024/04/12 00:56:59;;;;;;;0.88;0.77;;;;;;;;;;5655652;25;20201;-50
2024/04/12 00:59:31;;;;;;;0.70;0.70;;;;;;;;;;5670574;25;20270;-51
2024/04/12 01:01:59;;;;;;;0.80;0.80;;;;;;;;;;5646093;25;20231;-50
2024/04/12 01:04:29;;;;;;;0.80;0.80;;;;;;;;;;5646990;25;20228;-50
2024/04/12 01:06:56;;;;;;;0.90;0.80;;;;;;;;;;5671325;25;20969;-50
2024/04/12 01:09:28;;;;;;;0.77;0.75;;;;;;;;;;5655373;25;20319;-49
2024/04/12 01:11:59;;;;;;;2.10;0.90;;;;;;;;;;5639345;25;20221;-51
2024/04/12 01:14:26;;;;;;;0.88;0.60;;;;;;;;;;5653883;25;20246;-49
2024/04/12 01:16:55;;;;;;;0.65;0.65;;;;;;;;;;5672063;25;20280;-51
2024/04/12 01:19:22;;;;;;;0.52;0.52;;;;;;;;;;5652420;25;20216;-49
2024/04/12 01:21:51;;;;;;;1.27;0.60;;;;;;;;;;5640912;25;20263;-50
2024/04/12 01:24:18;;;;;;;0.73;0.73;;;;;;;;;;5667490;25;20597;-49
2024/04/12 01:26:50;;;;;;;0.60;0.60;;;;;;;;;;5645775;25;20289;-50
2024/04/12 01:29:16;;;;;;;0.95;0.77;;;;;;;;;;5661786;25;20257;-50
2024/04/12 01:31:47;;;;;;;1.50;1.40;;;;;;;;;;5674363;25;20228;-52
2024/04/12 01:34:13;;;;;;;1.35;1.10;;;;;;;;;;5650157;25;20314;-50
2024/04/12 01:36:43;;;;;;;0.90;0.90;;;;;;;;;;5677611;25;20266;-49
2024/04/12 01:39:11;;;;;;;1.67;1.25;;;;;;;;;;5677771;25;20323;-54
2024/04/12 01:41:41;;;;;;;1.83;1.40;;;;;;;;;;5659324;25;20286;-49
2024/04/12 01:44:12;;;;;;;1.00;1.00;;;;;;;;;;5654592;25;20629;-50
2024/04/12 01:46:42;;;;;;;1.25;1.00;;;;;;;;;;5672916;25;20277;-49
2024/04/12 01:49:10;;;;;;;2.05;1.20;;;;;;;;;;5667625;25;22124;-49
2024/04/12 01:51:41;;;;;;;1.02;1.02;;;;;;;;;;5654370;25;20257;-50
2024/04/12 01:54:13;;;;;;;1.20;1.10;;;;;;;;;;5648197;25;20220;-51
2024/04/12 01:56:47;;;;;;;1.48;1.23;;;;;;;;;;5658871;25;20259;-51
2024/04/12 01:59:20;;;;;;;1.02;0.90;;;;;;;;;;5654178;25;20758;-49
2024/04/12 02:01:50;;;;;;;1.35;1.25;;;;;;;;;;5658525;25;20227;-48
2024/04/12 02:04:18;;;;;;;1.30;1.20;;;;;;;;;;5648851;25;20722;-49
2024/04/12 02:06:48;;;;;;;1.63;1.52;;;;;;;;;;5658098;25;20315;-47
2024/04/12 02:09:14;;;;;;;1.50;1.40;;;;;;;;;;5677290;25;20690;-49
2024/04/12 02:11:45;;;;;;;1.48;1.30;;;;;;;;;;5660666;25;21064;-53
2024/04/12 02:14:15;;;;;;;1.60;1.50;;;;;;;;;;5676946;25;20220;-49
2024/04/12 02:16:49;;;;;;;1.33;1.23;;;;;;;;;;5644918;25;20225;-49
2024/04/12 02:19:21;;;;;;;1.10;1.00;;;;;;;;;;5676959;25;20219;-49
2024/04/12 02:21:50;;;;;;;2.47;1.58;;;;;;;;;;5660757;25;20228;-49
2024/04/12 02:24:17;;;;;;;1.30;1.20;;;;;;;;;;5648445;25;20255;-49
2024/04/12 02:26:50;;;;;;;1.17;1.08;;;;;;;;;;5641424;25;20224;-49
2024/04/12 02:29:21;;;;;;;1.20;1.10;;;;;;;;;;5660787;25;20739;-50
2024/04/12 02:31:50;;;;;;;1.40;1.30;;;;;;;;;;5660529;25;20235;-52
2024/04/12 02:34:17;;;;;;;2.95;1.48;;;;;;;;;;5664170;25;20268;-52
2024/04/12 02:36:48;;;;;;;2.17;1.98;;;;;;;;;;5657557;25;20315;-51
2024/04/12 02:39:22;;;;;;;2.45;1.58;;;;;;;;;;5649074;25;20220;-49
2024/04/12 02:41:51;;;;;;;3.38;1.75;;;;;;;;;;5642048;25;20753;-51
2024/04/12 02:44:24;;;;;;;1.83;1.73;;;;;;;;;;5676210;25;20255;-51
2024/04/12 02:46:53;;;;;;;1.40;1.15;;;;;;;;;;5660319;25;20306;-49
2024/04/12 02:49:20;;;;;;;1.58;1.48;;;;;;;;;;5647399;25;20318;-49
2024/04/12 02:51:51;;;;;;;1.60;1.30;;;;;;;;;;5641289;25;20429;-49
2024/04/12 02:54:19;;;;;;;1.25;1.17;;;;;;;;;;5664022;25;20719;-51
2024/04/12 02:56:48;;;;;;;1.40;1.30;;;;;;;;;;5673530;25;20261;-53
2024/04/12 02:59:15;;;;;;;1.60;1.50;;;;;;;;;;5660063;25;20223;-52
2024/04/12 03:01:47;;;;;;;0.90;0.90;;;;;;;;;;5656979;25;20769;-50
2024/04/12 03:04:13;;;;;;;1.27;1.17;;;;;;;;;;5664548;25;20228;-53
2024/04/12 03:06:42;;;;;;;2.42;1.67;;;;;;;;;;5658299;25;20304;-49
2024/04/12 03:09:11;;;;;;;1.02;1.02;;;;;;;;;;5647462;25;20258;-49
2024/04/12 03:11:40;;;;;;;1.92;1.73;;;;;;;;;;5649148;25;20228;-50
2024/04/12 03:14:09;;;;;;;1.30;1.20;;;;;;;;;;5645026;25;20249;-49
2024/04/12 03:16:40;;;;;;;1.13;1.13;;;;;;;;;;5669195;25;20262;-50
2024/04/12 03:19:10;;;;;;;2.05;1.15;;;;;;;;;;5641548;25;20220;-47
2024/04/12 03:21:41;;;;;;;1.25;1.23;;;;;;;;;;5641607;25;20573;-50
2024/04/12 03:24:09;;;;;;;2.15;1.52;;;;;;;;;;5652649;25;20263;-52
2024/04/12 03:26:38;;;;;;;1.88;1.77;;;;;;;;;;5647663;25;20308;-50
2024/04/12 03:29:05;;;;;;;1.23;1.13;;;;;;;;;;5646201;25;20776;-50
2024/04/12 03:31:38;;;;;;;1.52;1.42;;;;;;;;;;5647375;25;20274;-51
2024/04/12 03:34:06;;;;;;;1.33;1.23;;;;;;;;;;5650437;25;20217;-50
2024/04/12 03:36:53;;;;;;;4.75;2.83;;;;;;;;;;5658969;25;20216;-52
2024/04/12 03:39:28;;;;;;;1.15;1.15;;;;;;;;;;5645828;25;20217;-50
2024/04/12 03:42:04;;;;;;;1.60;1.50;;;;;;;;;;5663701;25;20561;-49
2024/04/12 03:44:31;;;;;;;1.50;1.40;;;;;;;;;;5649895;25;20725;-50
2024/04/12 03:47:07;;;;;;;1.20;1.10;;;;;;;;;;5654442;25;20851;-49
2024/04/12 03:49:36;;;;;;;1.00;1.00;;;;;;;;;;5647057;25;20318;-53
2024/04/12 03:52:11;;;;;;;0.98;0.98;;;;;;;;;;5655228;25;20232;-51
2024/04/12 03:54:39;;;;;;;1.00;1.00;;;;;;;;;;5664992;25;20806;-50
2024/04/12 03:57:09;;;;;;;0.93;0.93;;;;;;;;;;5656571;25;20284;-51
2024/04/12 03:59:36;;;;;;;0.82;0.80;;;;;;;;;;5640742;25;20283;-50
2024/04/12 04:02:09;;;;;;;2.33;1.20;;;;;;;;;;5647258;25;20225;-51
2024/04/12 04:04:44;;;;;;;1.83;1.02;;;;;;;;;;5649349;25;20280;-50
2024/04/12 04:07:15;;;;;;;1.13;1.00;;;;;;;;;;5651976;25;20831;-51
2024/04/12 04:09:45;;;;;;;1.15;0.95;;;;;;;;;;5654478;25;20762;-49
2024/04/12 04:12:14;;;;;;;1.30;1.20;;;;;;;;;;5658295;25;20274;-48
2024/04/12 04:14:48;;;;;;;1.20;1.20;;;;;;;;;;5656156;25;20251;-49
2024/04/12 04:17:15;;;;;;;1.52;1.30;;;;;;;;;;5644997;25;20221;-48
2024/04/12 04:19:45;;;;;;;1.50;1.40;;;;;;;;;;5649639;25;20259;-50
2024/04/12 04:22:39;;;;;;;6.35;1.85;;;;;;;;;;5654049;25;20255;-50
2024/04/12 04:25:10;;;;;;;1.95;1.85;;;;;;;;;;5644302;25;20795;-53
2024/04/12 04:27:40;;;;;;;1.98;1.55;;;;;;;;;;5655346;25;20246;-50
2024/04/12 04:30:07;;;;;;;2.40;1.52;;;;;;;;;;5648385;25;20267;-50
2024/04/12 04:32:37;;;;;;;1.48;1.38;;;;;;;;;;5666830;25;20270;-52
2024/04/12 04:35:08;;;;;;;2.03;1.83;;;;;;;;;;5663796;25;20216;-49
2024/04/12 04:37:41;;;;;;;1.33;1.27;;;;;;;;;;5651293;25;20809;-51
2024/04/12 04:40:10;;;;;;;1.60;1.50;;;;;;;;;;5648278;25;20276;-50
2024/04/12 04:42:42;;;;;;;1.17;1.17;;;;;;;;;;5649879;25;20621;-49
2024/04/12 04:45:09;;;;;;;1.40;1.30;;;;;;;;;;5673686;25;20254;-48
2024/04/12 04:47:39;;;;;;;2.15;1.63;;;;;;;;;;5656780;25;20292;-49
2024/04/12 04:50:08;;;;;;;2.08;1.20;;;;;;;;;;5643797;25;20225;-47
2024/04/12 04:52:41;;;;;;;1.10;1.10;;;;;;;;;;5671250;25;20219;-48
2024/04/12 04:55:11;;;;;;;1.10;1.10;;;;;;;;;;5659812;25;20260;-49
2024/04/12 04:57:43;;;;;;;2.60;1.50;;;;;;;;;;5655300;25;20605;-49
2024/04/12 05:00:18;;;;;;;3.53;1.15;;;;;;;;;;5643679;25;20711;-48
2024/04/12 05:02:50;;;;;;;1.45;1.38;;;;;;;;;;5665508;25;20708;-50
2024/04/12 05:05:22;;;;;;;1.20;0.90;;;;;;;;;;5662023;25;20260;-49
2024/04/12 05:07:56;;;;;;;1.67;1.58;;;;;;;;;;5650129;25;20314;-49
2024/04/12 05:10:24;;;;;;;1.80;1.70;;;;;;;;;;5666606;25;20220;-50
2024/04/12 05:12:53;;;;;;;0.80;0.80;;;;;;;;;;5650295;25;20263;-48
2024/04/12 05:18:16;;;;;;;1.30;1.20;;;;;;;;;;5642908;25;20217;-49
2024/04/12 05:20:43;;;;;;;1.30;1.20;;;;;;;;;;5646062;25;20220;-49
2024/04/12 05:23:17;;;;;;;1.30;1.20;;;;;;;;;;5657100;25;20228;-49
2024/04/12 05:25:46;;;;;;;3.50;1.38;;;;;;;;;;5646716;25;20216;-50
2024/04/12 05:28:15;;;;;;;2.53;2.10;;;;;;;;;;5653801;25;20706;-49
2024/04/12 05:30:42;;;;;;;1.60;1.30;;;;;;;;;;5647232;25;20262;-49
2024/04/12 05:33:16;;;;;;;1.17;1.13;;;;;;;;;;5663620;25;20240;-52
2024/04/12 05:35:44;;;;;;;1.92;1.35;;;;;;;;;;5654950;25;20802;-50
2024/04/12 05:38:20;;;;;;;1.90;1.42;;;;;;;;;;5638676;25;20224;-49
2024/04/12 05:40:52;;;;;;;1.02;1.02;;;;;;;;;;5662822;25;20266;-49
2024/04/12 05:43:22;;;;;;;2.35;1.83;;;;;;;;;;5644419;25;20569;-49
2024/04/12 05:45:49;;;;;;;2.08;1.75;;;;;;;;;;5650212;25;20847;-53
2024/04/12 05:48:19;;;;;;;1.13;1.13;;;;;;;;;;5646849;25;20739;-53
2024/04/12 05:50:48;;;;;;;1.90;1.30;;;;;;;;;;5661664;25;20754;-50
2024/04/12 05:53:21;;;;;;;1.48;1.17;;;;;;;;;;5638426;25;20747;-50
2024/04/12 05:55:52;;;;;;;3.08;1.85;;;;;;;;;;5638574;25;20221;-50
2024/04/12 05:58:24;;;;;;;1.38;1.20;;;;;;;;;;5643238;25;20221;-49
2024/04/12 06:00:56;;;;;;;3.20;1.58;;;;;;;;;;5666956;25;20275;-50
2024/04/12 06:03:25;;;;;;;1.27;1.10;;;;;;;;;;5670999;25;20333;-48
2024/04/12 06:05:57;;;;;;;1.45;1.13;;;;;;;;;;5651459;25;20262;-49
2024/04/12 06:08:28;;;;;;;2.85;1.30;;;;;;;;;;5659147;25;20313;-52
2024/04/12 06:10:58;;;;;;;2.13;1.40;;;;;;;;;;5664338;25;20330;-52
2024/04/12 06:13:26;;;;;;;7.90;1.98;;;;;;;;;;5668296;25;20335;-52
2024/04/12 06:15:55;;;;;;;1.20;1.10;;;;;;;;;;5660858;25;20217;-49
2024/04/12 06:18:21;;;;;;;1.20;1.10;;;;;;;;;;5672666;25;20339;-50
2024/04/12 06:20:51;;;;;;;1.33;1.10;;;;;;;;;;5672350;25;20744;-49
2024/04/12 06:23:19;;;;;;;1.60;1.40;;;;;;;;;;5676450;25;20228;-51
2024/04/12 06:25:51;;;;;;;1.65;1.55;;;;;;;;;;5669151;25;20728;-51
2024/04/12 06:28:19;;;;;;;1.40;1.30;;;;;;;;;;5665769;25;20342;-50
2024/04/12 06:30:52;;;;;;;1.63;1.45;;;;;;;;;;5673428;25;20220;-50
2024/04/12 06:33:22;;;;;;;1.30;1.20;;;;;;;;;;5675970;25;20259;-49
2024/04/12 06:35:52;;;;;;;1.95;1.05;;;;;;;;;;5658073;25;20220;-49
2024/04/12 06:38:21;;;;;;;2.60;1.50;;;;;;;;;;5676545;25;20819;-50
2024/04/12 06:41:00;;;;;;;2.42;1.63;;;;;;;;;;5660385;25;20682;-49
2024/04/12 06:43:26;;;;;;;1.50;1.40;;;;;;;;;;5647773;25;20217;-49
2024/04/12 06:46:07;;;;;;;1.77;1.63;;;;;;;;;;5645276;25;20323;-48
2024/04/12 06:48:34;;;;;;;1.27;1.17;;;;;;;;;;5666225;25;20727;-49
2024/04/12 06:51:05;;;;;;;2.17;1.92;;;;;;;;;;5676067;25;20263;-49
2024/04/12 06:53:32;;;;;;;1.77;1.67;;;;;;;;;;5668292;25;20220;-51
2024/04/12 06:56:06;;;;;;;3.03;2.72;;;;;;;;;;5653427;25;20221;-54
2024/04/12 06:58:33;;;;;;;2.75;1.95;;;;;;;;;;5657712;25;20261;-50
2024/04/12 07:01:05;;;;;;;4.28;2.80;;;;;;;;;;5649292;25;20311;-49
2024/04/12 07:03:34;;;;;;;2.75;2.15;;;;;;;;;;5669027;25;20228;-50
2024/04/12 07:06:04;;;;;;;1.83;1.63;;;;;;;;;;5661016;25;20725;-50
2024/04/12 07:08:31;;;;;;;3.03;1.80;;;;;;;;;;5672004;25;20262;-51
2024/04/12 07:11:06;;;;;;;2.03;1.83;;;;;;;;;;5643763;25;20314;-52
2024/04/12 07:13:33;;;;;;;2.28;2.08;;;;;;;;;;5675643;25;20266;-53
2024/04/12 07:16:03;;;;;;;2.10;1.90;;;;;;;;;;5671815;25;20220;-49
2024/04/12 07:18:30;;;;;;;2.47;1.80;;;;;;;;;;5643594;25;20834;-49
2024/04/12 07:21:14;;;;;;;4.13;2.05;;;;;;;;;;5659523;25;20220;-50
2024/04/12 07:23:41;;;;;;;3.90;1.98;;;;;;;;;;5671310;25;20217;-48
2024/04/12 07:26:14;;;;;;;1.90;1.75;;;;;;;;;;5649862;25;20273;-50
2024/04/12 07:28:41;;;;;;;4.68;1.95;;;;;;;;;;5644807;25;20333;-50
2024/04/12 07:31:10;;;;;;;2.78;1.67;;;;;;;;;;5636500;25;20264;-52
2024/04/12 07:33:36;;;;;;;3.55;2.50;;;;;;;;;;5665739;25;20219;-51
2024/04/12 07:36:16;;;;;;;2.35;2.08;;;;;;;;;;5667414;25;20261;-49
2024/04/12 07:38:42;;;;;;;3.65;1.95;;;;;;;;;;5671261;25;20915;-53
2024/04/12 07:41:14;;;;;;;1.50;1.40;;;;;;;;;;5667298;25;20224;-51
2024/04/12 07:43:42;;;;;;;2.30;2.10;;;;;;;;;;5672972;25;20266;-49
2024/04/12 07:46:14;;;;;;;3.83;2.42;;;;;;;;;;5658302;25;20220;-49
2024/04/12 07:48:41;;;;;;;2.42;1.80;;;;;;;;;;5671506;25;20595;-51
2024/04/12 07:51:12;;;;;;;2.78;2.17;;;;;;;;;;5674884;25;20543;-50
2024/04/12 07:53:38;;;;;;;2.03;1.80;;;;;;;;;;5670982;25;20264;-54
2024/04/12 07:56:14;;;;;;;1.75;1.42;;;;;;;;;;5674987;25;20228;-50
2024/04/12 07:59:01;;;;;;;2.13;1.73;;;;;;;;;;5648610;25;20216;-51
2024/04/12 08:01:30;;;;;;;2.85;1.92;;;;;;;;;;5647333;25;20224;-50
2024/04/12 08:03:57;;;;;;;2.33;1.73;;;;;;;;;;5655861;25;20221;-50
2024/04/12 08:09:21;;;;;;;2.38;1.90;;;;;;;;;;5648440;25;20228;-49
2024/04/12 08:11:51;;;;;;;1.88;1.60;;;;;;;;;;5655537;25;20224;-50
2024/04/12 08:14:23;;;;;;;4.28;2.58;;;;;;;;;;5659691;25;20728;-49
2024/04/12 08:16:53;;;;;;;2.63;1.88;;;;;;;;;;5652245;25;20229;-52
2024/04/12 08:19:37;;;;;;;1.95;1.75;;;;;;;;;;5655842;25;20262;-51
2024/04/12 08:22:06;;;;;;;1.50;1.35;;;;;;;;;;5643555;25;20225;-50
2024/04/12 08:24:40;;;;;;;2.08;1.65;;;;;;;;;;5667867;25;20228;-50
2024/04/12 08:27:09;;;;;;;3.72;1.67;;;;;;;;;;5648792;25;20264;-54
2024/04/12 08:29:40;;;;;;;2.97;1.98;;;;;;;;;;5671496;25;20254;-51
2024/04/12 08:32:13;;;;;;;2.60;1.55;;;;;;;;;;5669221;25;20221;-50
2024/04/12 08:34:44;;;;;;;2.22;2.03;;;;;;;;;;5643010;25;20225;-50
2024/04/12 08:37:13;;;;;;;2.08;1.98;;;;;;;;;;5649605;25;20706;-50
2024/04/12 08:39:45;;;;;;;1.98;1.88;;;;;;;;;;5674633;25;20318;-50
2024/04/12 08:42:14;;;;;;;2.25;1.88;;;;;;;;;;5668062;25;20225;-50
2024/04/12 08:44:47;;;;;;;1.88;1.55;;;;;;;;;;5673347;25;20710;-51
2024/04/12 08:47:30;;;;;;;1.98;1.52;;;;;;;;;;5651641;25;20264;-50
2024/04/12 08:50:07;;;;;;;2.08;1.92;;;;;;;;;;5678001;25;20685;-49
2024/04/12 08:52:43;;;;;;;2.10;1.90;;;;;;;;;;5674516;25;20224;-51
2024/04/12 08:55:14;;;;;;;3.88;2.35;;;;;;;;;;5674198;25;20698;-50
2024/04/12 08:57:41;;;;;;;2.53;2.35;;;;;;;;;;5660120;25;20288;-51
2024/04/12 09:00:18;;;;;;;2.08;1.88;;;;;;;;;;5652007;25;20262;-51
2024/04/12 09:02:48;;;;;;;1.70;1.55;;;;;;;;;;5674150;25;20262;-53
2024/04/12 09:05:22;;;;;;;3.15;1.92;;;;;;;;;;5677775;25;20220;-50
2024/04/12 09:07:50;;;;;;;2.65;2.13;;;;;;;;;;5673681;25;20216;-53
2024/04/12 09:10:20;;;;;;;2.78;1.85;;;;;;;;;;5661960;25;20225;-55
2024/04/12 09:12:47;;;;;;;3.90;2.70;;;;;;;;;;5654846;25;20581;-52
2024/04/12 09:15:27;;;;;;;2.08;1.70;;;;;;;;;;5662068;25;20219;-55
2024/04/12 09:18:00;;;;;;;6.75;3.03;;;;;;;;;;5668993;25;20296;-52
2024/04/12 09:20:35;;;;;;;1.60;1.50;;;;;;;;;;5642347;25;20547;-51
2024/04/12 09:23:14;;;;;;;2.05;1.95;;;;;;;;;;5662128;25;20281;-51
2024/04/12 09:25:54;;;;;;;2.03;1.85;;;;;;;;;;5665531;25;20227;-51
2024/04/12 09:28:22;;;;;;;1.50;1.40;;;;;;;;;;5642222;25;20726;-52
2024/04/12 09:33:50;;;;;;;3.00;2.00;;;;;;;;;;5676389;25;20270;-51
2024/04/12 09:36:38;;;;;;;3.25;2.08;;;;;;;;;;5672906;25;20761;-51
2024/04/12 09:39:14;;;;;;;1.88;1.77;;;;;;;;;;5656613;25;20257;-52
2024/04/12 09:41:53;;;;;;;1.90;1.80;;;;;;;;;;5659857;25;20766;-52
2024/04/12 09:44:26;;;;;;;1.73;1.60;;;;;;;;;;5677401;25;20219;-52
2024/04/12 10:37:48;;;;;;;1.20;1.10;;;;;;;;;;5502749;26;20236;-52
2024/04/12 10:40:21;;;;;;;1.30;1.20;;;;;;;;;;5616107;25;20220;-55
2024/04/12 10:42:56;;;;;;;1.38;0.95;;;;;;;;;;5676646;25;20308;-52
2024/04/12 10:45:26;;;;;;;4.28;1.85;;;;;;;;;;5676561;25;20215;-54
2024/04/12 10:47:54;;;;;;;1.85;1.10;;;;;;;;;;5674781;25;20597;-53
2024/04/12 10:50:27;;;;;;;2.67;1.90;;;;;;;;;;5644476;25;20221;-53
2024/04/12 10:53:06;;;;;;;1.02;0.90;;;;;;;;;;5669224;25;20219;-54
2024/04/12 10:55:35;;;;;;;3.78;1.70;;;;;;;;;;5656861;25;20279;-52
2024/04/12 10:58:05;;;;;;;2.22;1.35;;;;;;;;;;5664182;25;20215;-55
2024/04/12 11:00:35;;;;;;;1.33;1.23;;;;;;;;;;5676246;25;20216;-51
2024/04/12 11:03:14;;;;;;;1.13;1.02;;;;;;;;;;5636773;25;20328;-51
2024/04/12 11:05:47;;;;;;;1.50;1.40;;;;;;;;;;5669687;25;20283;-51
2024/04/12 11:08:16;;;;;;;1.23;1.00;;;;;;;;;;5667242;25;20327;-51
2024/04/12 11:10:54;;;;;;;1.52;1.35;;;;;;;;;;5673604;25;20223;-50
2024/04/12 11:13:29;;;;;;;1.80;1.48;;;;;;;;;;5665314;25;20555;-53
2024/04/12 11:32:42;;;;;;;4.82;1.80;;;;;;;;;;5680607;25;20254;-50
2024/04/12 11:35:15;;;;;;;1.10;1.10;;;;;;;;;;5676724;25;20224;-51
2024/04/12 11:37:44;;;;;;;1.10;1.00;;;;;;;;;;5661137;25;20338;-53
2024/04/12 11:40:16;;;;;;;0.80;0.80;;;;;;;;;;5653295;25;20267;-54
2024/04/12 11:42:49;;;;;;;1.20;1.10;;;;;;;;;;5642127;25;20221;-54
2024/04/12 11:45:17;;;;;;;8.52;2.38;;;;;;;;;;5679110;25;20711;-51
2024/04/12 11:47:47;;;;;;;1.63;1.02;;;;;;;;;;5673225;25;20274;-55
2024/04/12 11:50:14;;;;;;;0.80;0.80;;;;;;;;;;5653780;25;20625;-50
2024/04/12 11:52:43;;;;;;;1.05;0.80;;;;;;;;;;5678612;25;20229;-53
2024/04/12 11:55:12;;;;;;;0.93;0.93;;;;;;;;;;5675774;25;20216;-53
2024/04/12 11:57:44;;;;;;;1.77;0.73;;;;;;;;;;5661401;25;20220;-52
2024/04/12 12:00:15;;;;;;;0.75;0.75;;;;;;;;;;5652889;25;20541;-52
2024/04/12 12:02:45;;;;;;;1.02;1.02;;;;;;;;;;5660540;25;20225;-51
2024/04/12 12:05:16;;;;;;;0.70;0.70;;;;;;;;;;5652891;25;20268;-51
2024/04/12 12:07:47;;;;;;;1.00;1.00;;;;;;;;;;5642868;25;20324;-52
2024/04/12 12:10:16;;;;;;;0.70;0.70;;;;;;;;;;5666857;25;20887;-54
2024/04/12 12:12:45;;;;;;;0.75;0.75;;;;;;;;;;5678202;25;20288;-51
2024/04/12 12:15:14;;;;;;;0.85;0.85;;;;;;;;;;5678687;25;20216;-51
2024/04/12 12:17:47;;;;;;;0.70;0.70;;;;;;;;;;5678570;25;20215;-50
2024/04/12 12:20:18;;;;;;;0.70;0.70;;;;;;;;;;5678756;25;20744;-50
2024/04/12 12:22:50;;;;;;;0.70;0.70;;;;;;;;;;5672907;25;20262;-50
2024/04/12 12:25:19;;;;;;;0.75;0.75;;;;;;;;;;5678732;25;20726;-55
2024/04/12 12:27:49;;;;;;;1.15;1.10;;;;;;;;;;5662342;25;20730;-56
2024/04/12 12:30:18;;;;;;;0.73;0.70;;;;;;;;;;5678794;25;20216;-53
2024/04/12 12:32:49;;;;;;;1.65;0.77;;;;;;;;;;5678309;25;20650;-53
2024/04/12 12:35:21;;;;;;;0.70;0.70;;;;;;;;;;5675736;25;20216;-54
2024/04/12 12:37:52;;;;;;;1.00;0.90;;;;;;;;;;5678518;25;20254;-53
2024/04/12 12:40:21;;;;;;;1.10;1.10;;;;;;;;;;5666701;25;20221;-55
2024/04/12 12:42:51;;;;;;;1.17;1.17;;;;;;;;;;5657841;25;20224;-50
2024/04/12 12:45:19;;;;;;;0.90;0.90;;;;;;;;;;5678060;25;20258;-53
2024/04/12 12:47:49;;;;;;;0.95;0.95;;;;;;;;;;5678297;25;20310;-51
2024/04/12 12:50:19;;;;;;;0.80;0.80;;;;;;;;;;5678690;25;20215;-52
2024/04/12 12:52:51;;;;;;;0.70;0.70;;;;;;;;;;5677691;25;20277;-52
2024/04/12 12:55:28;;;;;;;0.80;0.80;;;;;;;;;;5678022;25;20318;-53
2024/04/12 12:58:09;;;;;;;0.90;0.70;;;;;;;;;;5677949;25;20227;-51
2024/04/12 13:00:42;;;;;;;1.58;1.30;;;;;;;;;;5678248;25;20258;-51
2024/04/12 13:03:11;;;;;;;1.30;1.20;;;;;;;;;;5677460;25;20710;-51
2024/04/12 13:05:45;;;;;;;0.85;0.73;;;;;;;;;;5675195;25;20321;-52
2024/04/12 13:08:15;;;;;;;1.17;1.17;;;;;;;;;;5678060;25;20710;-53
2024/04/12 13:10:48;;;;;;;0.80;0.80;;;;;;;;;;5643014;25;20221;-51
2024/04/12 13:13:21;;;;;;;0.80;0.80;;;;;;;;;;5677958;25;20729;-52
2024/04/12 13:15:54;;;;;;;0.80;0.80;;;;;;;;;;5674445;25;20607;-51
2024/04/12 13:18:22;;;;;;;0.82;0.82;;;;;;;;;;5667675;25;20228;-51
2024/04/12 13:20:51;;;;;;;1.00;1.00;;;;;;;;;;5645396;25;20218;-55
2024/04/12 13:23:18;;;;;;;0.60;0.60;;;;;;;;;;5666211;25;20835;-50
2024/04/12 13:25:50;;;;;;;1.55;0.70;;;;;;;;;;5657467;25;20232;-54
2024/04/12 13:28:17;;;;;;;1.20;1.10;;;;;;;;;;5678013;25;20792;-51
2024/04/12 13:30:47;;;;;;;0.80;0.80;;;;;;;;;;5672236;25;20223;-54
2024/04/12 13:33:14;;;;;;;0.80;0.80;;;;;;;;;;5677180;25;20270;-53
2024/04/12 13:35:44;;;;;;;0.70;0.70;;;;;;;;;;5675143;25;20259;-52
2024/04/12 13:38:12;;;;;;;0.70;0.70;;;;;;;;;;5677720;25;20258;-53
2024/04/12 13:40:45;;;;;;;0.70;0.70;;;;;;;;;;5676728;25;20314;-52
2024/04/12 13:43:15;;;;;;;0.73;0.73;;;;;;;;;;5648419;25;20220;-51
2024/04/12 13:51:22;;;;;;;0.90;0.73;;;;;;;;;;5671572;25;20262;-51
2024/04/12 13:53:52;;;;;;;1.42;0.80;;;;;;;;;;5674509;25;20215;-52
2024/04/12 13:56:20;;;;;;;1.20;1.10;;;;;;;;;;5661123;25;20294;-51
2024/04/12 13:58:56;;;;;;;0.90;0.90;;;;;;;;;;5677018;25;20227;-50
2024/04/12 14:01:23;;;;;;;1.10;1.00;;;;;;;;;;5672278;25;20737;-50
2024/04/12 14:03:58;;;;;;;0.77;0.77;;;;;;;;;;5676891;25;20258;-51
2024/04/12 14:06:25;;;;;;;0.80;0.65;;;;;;;;;;5674997;25;20254;-51
2024/04/12 14:08:55;;;;;;;0.55;0.55;;;;;;;;;;5656742;25;20259;-51
2024/04/12 14:11:22;;;;;;;0.60;0.60;;;;;;;;;;5653031;25;20259;-52
2024/04/12 14:13:54;;;;;;;0.63;0.63;;;;;;;;;;5676477;25;20223;-54
2024/04/12 14:16:28;;;;;;;1.08;0.98;;;;;;;;;;5676943;25;20255;-54
2024/04/12 14:18:58;;;;;;;0.68;0.68;;;;;;;;;;5671737;25;20269;-50
2024/04/12 14:21:26;;;;;;;0.90;0.90;;;;;;;;;;5651374;25;20278;-51
2024/04/12 14:23:55;;;;;;;0.60;0.60;;;;;;;;;;5674980;25;20790;-53
2024/04/12 14:26:25;;;;;;;1.58;0.73;;;;;;;;;;5676547;25;20339;-51
2024/04/12 14:29:00;;;;;;;0.68;0.68;;;;;;;;;;5670181;25;20216;-51
2024/04/12 14:31:26;;;;;;;2.20;0.90;;;;;;;;;;5651389;25;20228;-55
2024/04/12 14:33:56;;;;;;;0.50;0.50;;;;;;;;;;5642119;25;20267;-55
2024/04/12 14:36:22;;;;;;;0.80;0.80;;;;;;;;;;5674484;25;20254;-55
2024/04/12 14:38:51;;;;;;;0.50;0.50;;;;;;;;;;5658029;25;20661;-54
2024/04/12 14:41:19;;;;;;;0.70;0.70;;;;;;;;;;5676782;25;20630;-52
2024/04/12 14:43:48;;;;;;;1.05;0.95;;;;;;;;;;5646689;25;20273;-50
2024/04/12 14:46:18;;;;;;;0.85;0.80;;;;;;;;;;5676560;25;20220;-54
2024/04/12 14:48:47;;;;;;;0.60;0.60;;;;;;;;;;5671910;25;20326;-51
2024/04/12 14:51:14;;;;;;;1.05;1.05;;;;;;;;;;5674559;25;20220;-55
2024/04/12 14:53:45;;;;;;;1.08;1.08;;;;;;;;;;5643958;25;20225;-50
2024/04/12 14:56:12;;;;;;;0.95;0.70;;;;;;;;;;5676674;25;20228;-54
2024/04/12 14:58:41;;;;;;;0.95;0.95;;;;;;;;;;5662391;25;21126;-54
2024/04/12 15:01:10;;;;;;;0.65;0.65;;;;;;;;;;5651451;25;20260;-51
2024/04/12 15:50:30;;;;;;;0.70;0.70;;;;;;;;;;5675657;25;20259;-53
2024/04/12 16:12:17;;;;;;;1.67;1.13;;;;;;;;;;5638703;25;20274;-52
2024/04/12 16:14:46;;;;;;;0.98;0.98;;;;;;;;;;5639923;25;20225;-52
2024/04/12 16:17:16;;;;;;;0.60;0.60;;;;;;;;;;5640307;25;20825;-53
2024/04/12 16:19:42;;;;;;;0.90;0.80;;;;;;;;;;5657816;25;20279;-52
2024/04/12 16:22:12;;;;;;;1.15;1.15;;;;;;;;;;5664546;25;20729;-50
2024/04/12 16:24:41;;;;;;;0.90;0.88;;;;;;;;;;5676483;25;20228;-49
2024/04/12 16:27:11;;;;;;;0.85;0.85;;;;;;;;;;5676834;25;20254;-52
2024/04/12 16:29:38;;;;;;;1.35;1.25;;;;;;;;;;5674308;25;20266;-51
2024/04/12 16:32:08;;;;;;;0.95;0.95;;;;;;;;;;5662188;25;20223;-51
2024/04/12 16:34:34;;;;;;;1.20;1.20;;;;;;;;;;5678148;25;20220;-50
2024/04/12 16:37:04;;;;;;;1.17;1.10;;;;;;;;;;5676525;25;20371;-54
2024/04/12 16:39:31;;;;;;;1.10;1.10;;;;;;;;;;5648196;25;20221;-55
2024/04/12 16:42:03;;;;;;;1.25;1.13;;;;;;;;;;5655794;25;20271;-50
2024/04/12 16:44:29;;;;;;;1.00;1.00;;;;;;;;;;5669982;25;20215;-52
2024/04/12 16:46:58;;;;;;;1.00;1.00;;;;;;;;;;5646204;25;20816;-56
2024/04/12 16:49:26;;;;;;;1.38;1.27;;;;;;;;;;5665652;25;20272;-54
2024/04/12 16:51:56;;;;;;;1.17;1.10;;;;;;;;;;5660527;25;20327;-52
2024/04/12 16:54:23;;;;;;;1.23;1.17;;;;;;;;;;5665853;25;20217;-50
2024/04/12 16:56:52;;;;;;;1.10;1.10;;;;;;;;;;5675410;25;20223;-54
2024/04/12 16:59:22;;;;;;;1.63;1.25;;;;;;;;;;5678769;25;20215;-54
2024/04/12 17:01:51;;;;;;;1.48;1.38;;;;;;;;;;5678380;25;20274;-50
2024/04/12 17:04:17;;;;;;;1.58;1.00;;;;;;;;;;5650864;25;20217;-51
2024/04/12 17:06:46;;;;;;;0.75;0.75;;;;;;;;;;5674167;25;20220;-49
2024/04/12 17:09:14;;;;;;;0.95;0.90;;;;;;;;;;5678395;25;20215;-49
2024/04/12 17:11:43;;;;;;;0.80;0.80;;;;;;;;;;5660616;25;20228;-52
2024/04/12 17:14:10;;;;;;;0.90;0.90;;;;;;;;;;5655081;25;20221;-51
2024/04/12 17:16:42;;;;;;;1.08;1.08;;;;;;;;;;5655407;25;20699;-53
2024/04/12 17:19:11;;;;;;;1.20;1.10;;;;;;;;;;5678273;25;20223;-52
2024/04/12 17:21:40;;;;;;;0.93;0.85;;;;;;;;;;5661399;25;20335;-53
2024/04/12 17:24:09;;;;;;;0.80;0.80;;;;;;;;;;5654917;25;20217;-52
2024/04/12 17:26:38;;;;;;;0.73;0.73;;;;;;;;;;5671179;25;20220;-50
2024/04/12 17:29:05;;;;;;;0.80;0.80;;;;;;;;;;5676721;25;20258;-53
2024/04/12 17:31:36;;;;;;;1.15;1.05;;;;;;;;;;5646604;25;20225;-51